createdAt,value
2016-09-24T00:00:51.784Z,1007.95
2016-09-24T00:02:02.108Z,1007.93
2016-09-24T00:03:12.403Z,1007.92
2016-09-24T00:04:22.702Z,1007.92
2016-09-24T00:05:32.992Z,1007.91
2016-09-24T00:06:43.294Z,1007.9
2016-09-24T00:07:53.280Z,1007.91
2016-09-24T00:09:03.276Z,1007.93
2016-09-24T00:10:13.589Z,1007.94
2016-09-24T00:11:23.887Z,1007.95
2016-09-24T00:12:33.879Z,1007.95
2016-09-24T00:13:44.180Z,1007.98
2016-09-24T00:14:54.157Z,1007.96
2016-09-24T00:16:04.142Z,1007.97
2016-09-24T00:17:14.424Z,1007.97
2016-09-24T00:18:24.397Z,1008
2016-09-24T00:19:34.387Z,1008
2016-09-24T00:20:44.701Z,1007.97
2016-09-24T00:21:54.992Z,1008.03
2016-09-24T00:23:05.287Z,1007.97
2016-09-24T00:24:15.595Z,1007.94
2016-09-24T00:25:25.567Z,1007.99
2016-09-24T00:26:35.546Z,1007.98
2016-09-24T00:27:45.221Z,1007.96
2016-09-24T00:28:55.521Z,1007.96
2016-09-24T00:30:05.814Z,1007.94
2016-09-24T00:31:15.790Z,1007.96
2016-09-24T00:32:25.787Z,1007.94
2016-09-24T00:33:35.772Z,1007.96
2016-09-24T00:34:46.081Z,1007.91
2016-09-24T00:35:56.363Z,1007.87
2016-09-24T00:37:06.647Z,1007.88
2016-09-24T00:38:16.935Z,1007.87
2016-09-24T00:39:27.219Z,1007.88
2016-09-24T00:40:37.191Z,1007.86
2016-09-24T00:41:47.488Z,1007.89
2016-09-24T00:42:57.459Z,1007.89
2016-09-24T00:44:07.451Z,1007.86
2016-09-24T00:45:17.736Z,1007.85
2016-09-24T00:46:28.035Z,1007.86
2016-09-24T00:47:37.399Z,1007.82
2016-09-24T00:48:47.068Z,1007.82
2016-09-24T00:49:57.048Z,1007.81
2016-09-24T00:51:06.724Z,1007.88
2016-09-24T00:52:17.004Z,1007.86
2016-09-24T00:53:27.279Z,1007.86
2016-09-24T00:54:37.555Z,1007.85
2016-09-24T00:55:47.838Z,1007.82
2016-09-24T00:56:57.827Z,1007.81
2016-09-24T00:58:08.112Z,1007.82
2016-09-24T00:59:18.402Z,1007.79
2016-09-24T01:00:28.689Z,1007.78
2016-09-24T01:01:38.977Z,1007.77
2016-09-24T01:02:49.248Z,1007.8
2016-09-24T01:09:22.376Z,1007.9
2016-09-24T01:10:32.881Z,1007.89
2016-09-24T01:11:42.849Z,1007.91
2016-09-24T01:12:52.833Z,1007.88
2016-09-24T01:14:02.502Z,1007.87
2016-09-24T01:15:12.811Z,1007.88
2016-09-24T01:16:23.107Z,1007.9
2016-09-24T01:17:33.392Z,1007.91
2016-09-24T01:18:43.066Z,1007.89
2016-09-24T01:19:53.341Z,1007.93
2016-09-24T01:21:03.867Z,1007.89
2016-09-24T01:22:14.157Z,1007.9
2016-09-24T01:23:24.441Z,1007.89
2016-09-24T01:24:34.413Z,1007.88
2016-09-24T01:25:44.393Z,1007.89
2016-09-24T01:26:54.685Z,1007.9
2016-09-24T01:28:04.674Z,1007.89
2016-09-24T01:29:14.956Z,1007.92
2016-09-24T01:30:25.234Z,1007.9
2016-09-24T01:31:35.523Z,1007.88
2016-09-24T01:32:45.806Z,1007.9
2016-09-24T01:33:55.788Z,1007.87
2016-09-24T01:35:06.077Z,1007.86
2016-09-24T01:36:16.056Z,1007.87
2016-09-24T01:37:25.736Z,1007.88
2016-09-24T01:38:36.017Z,1007.87
2016-09-24T01:39:46.023Z,1007.89
2016-09-24T01:40:56.310Z,1007.88
2016-09-24T01:42:06.600Z,1007.9
2016-09-24T01:43:16.579Z,1007.9
2016-09-24T01:44:26.865Z,1007.88
2016-09-24T01:45:36.851Z,1007.92
2016-09-24T01:46:47.123Z,1007.89
2016-09-24T01:47:57.408Z,1007.89
2016-09-24T01:49:07.375Z,1007.93
2016-09-24T01:50:17.659Z,1007.92
2016-09-24T01:51:27.864Z,1007.91
2016-09-24T01:52:37.556Z,1007.91
2016-09-24T01:53:47.528Z,1007.91
2016-09-24T01:54:57.509Z,1007.91
2016-09-24T01:56:07.179Z,1007.9
2016-09-24T01:57:17.465Z,1007.9
2016-09-24T01:58:27.451Z,1007.86
2016-09-24T01:59:37.434Z,1007.91
2016-09-24T02:00:47.413Z,1007.93
2016-09-24T02:01:57.395Z,1007.95
2016-09-24T02:03:07.683Z,1007.91
2016-09-24T02:04:17.980Z,1007.95
2016-09-24T02:05:27.656Z,1007.93
2016-09-24T02:06:37.643Z,1007.97
2016-09-24T02:07:47.934Z,1007.96
2016-09-24T02:08:57.291Z,1007.95
2016-09-24T02:10:07.264Z,1008
2016-09-24T02:11:17.560Z,1008
2016-09-24T02:12:27.849Z,1007.99
2016-09-24T02:13:37.522Z,1008.08
2016-09-24T02:14:47.818Z,1008.09
2016-09-24T02:15:58.096Z,1008.13
2016-09-24T02:17:08.076Z,1008.09
2016-09-24T02:18:18.067Z,1008.1
2016-09-24T02:19:28.343Z,1008.13
2016-09-24T02:20:38.627Z,1008.09
2016-09-24T02:21:48.916Z,1008.1
2016-09-24T02:22:59.207Z,1008.12
2016-09-24T02:24:09.499Z,1008.15
2016-09-24T02:25:19.490Z,1008.14
2016-09-24T02:26:29.779Z,1008.16
2016-09-24T02:27:40.053Z,1008.16
2016-09-24T02:28:50.337Z,1008.15
2016-09-24T02:30:00.374Z,1008.18
2016-09-24T02:31:10.341Z,1008.15
2016-09-24T02:32:20.326Z,1008.19
2016-09-24T02:33:30.297Z,1008.16
2016-09-24T02:34:40.588Z,1008.17
2016-09-24T02:35:50.880Z,1008.17
2016-09-24T02:37:01.166Z,1008.15
2016-09-24T02:38:11.465Z,1008.15
2016-09-24T02:39:21.451Z,1008.16
2016-09-24T02:40:31.439Z,1008.15
2016-09-24T02:41:41.719Z,1008.09
2016-09-24T02:42:51.412Z,1008.18
2016-09-24T02:44:01.702Z,1008.15
2016-09-24T02:45:12.003Z,1008.14
2016-09-24T02:46:22.291Z,1008.2
2016-09-24T02:47:32.581Z,1008.2
2016-09-24T02:48:42.889Z,1008.23
2016-09-24T02:49:53.176Z,1008.21
2016-09-24T02:51:03.461Z,1008.23
2016-09-24T02:52:13.468Z,1008.2
2016-09-24T02:53:23.766Z,1008.18
2016-09-24T02:54:33.748Z,1008.2
2016-09-24T02:55:44.045Z,1008.15
2016-09-24T02:56:54.327Z,1008.19
2016-09-24T02:58:04.602Z,1008.13
2016-09-24T02:59:14.877Z,1008.13
2016-09-24T03:00:25.184Z,1008.12
2016-09-24T03:32:24.672Z,1008.14
2016-09-24T03:33:34.944Z,1008.12
2016-09-24T03:34:45.225Z,1008.15
2016-09-24T03:35:55.507Z,1008.16
2016-09-24T03:37:05.172Z,1008.14
2016-09-24T03:38:15.147Z,1008.19
2016-09-24T03:39:25.447Z,1008.15
2016-09-24T03:40:35.424Z,1008.15
2016-09-24T03:41:45.711Z,1008.12
2016-09-24T03:42:55.983Z,1008.14
2016-09-24T03:44:06.279Z,1008.19
2016-09-24T03:45:16.567Z,1008.2
2016-09-24T03:46:26.487Z,1008.16
2016-09-24T03:47:36.774Z,1008.22
2016-09-24T03:48:46.747Z,1008.18
2016-09-24T03:49:56.733Z,1008.18
2016-09-24T03:51:06.400Z,1008.16
2016-09-24T03:52:16.387Z,1008.15
2016-09-24T03:53:26.364Z,1008.14
2016-09-24T03:54:35.730Z,1008.1
2016-09-24T03:55:46.011Z,1008.08
2016-09-24T03:56:55.984Z,1008.08
2016-09-24T03:58:05.344Z,1008.06
2016-09-24T03:59:15.622Z,1008.03
2016-09-24T04:00:25.593Z,1007.98
2016-09-24T04:01:35.559Z,1008
2016-09-24T04:02:45.541Z,1008.01
2016-09-24T04:03:55.532Z,1008
2016-09-24T04:05:05.197Z,1007.97
2016-09-24T04:06:15.480Z,1007.99
2016-09-24T04:07:25.463Z,1007.98
2016-09-24T04:08:35.755Z,1007.95
2016-09-24T04:09:46.061Z,1007.94
2016-09-24T04:10:56.333Z,1007.96
2016-09-24T04:12:06.000Z,1007.9
2016-09-24T04:13:16.281Z,1007.91
2016-09-24T04:14:26.275Z,1007.98
2016-09-24T04:15:36.277Z,1007.93
2016-09-24T04:16:46.248Z,1007.95
2016-09-24T04:17:55.604Z,1007.97
2016-09-24T04:19:05.579Z,1008
2016-09-24T04:20:15.866Z,1008.07
2016-09-24T04:21:26.158Z,1008.1
2016-09-24T04:22:36.129Z,1008.13
2016-09-24T04:23:46.429Z,1008.1
2016-09-24T04:24:56.403Z,1008.18
2016-09-24T04:26:06.364Z,1008.14
2016-09-24T04:27:16.638Z,1008.14
2016-09-24T04:28:26.628Z,1008.15
2016-09-24T04:29:36.914Z,1008.16
2016-09-24T04:30:46.898Z,1008.18
2016-09-24T04:31:56.873Z,1008.21
2016-09-24T04:33:06.849Z,1008.22
2016-09-24T04:34:16.536Z,1008.21
2016-09-24T04:35:26.197Z,1008.23
2016-09-24T04:36:36.480Z,1008.25
2016-09-24T04:37:46.155Z,1008.28
2016-09-24T04:38:56.446Z,1008.3
2016-09-24T04:40:06.735Z,1008.35
2016-09-24T04:41:16.716Z,1008.32
2016-09-24T04:42:26.703Z,1008.41
2016-09-24T04:43:36.990Z,1008.38
2016-09-24T04:44:46.955Z,1008.37
2016-09-24T04:45:56.928Z,1008.41
2016-09-24T04:47:06.904Z,1008.39
2016-09-24T04:48:17.188Z,1008.36
2016-09-24T04:49:27.153Z,1008.37
2016-09-24T04:50:37.155Z,1008.34
2016-09-24T04:51:47.133Z,1008.35
2016-09-24T04:52:57.431Z,1008.35
2016-09-24T04:54:07.719Z,1008.37
2016-09-24T04:55:17.390Z,1008.41
2016-09-24T04:56:27.675Z,1008.43
2016-09-24T04:57:37.968Z,1008.44
2016-09-24T04:58:47.944Z,1008.46
2016-09-24T04:59:58.278Z,1008.48
2016-09-24T05:01:08.244Z,1008.51
2016-09-24T05:02:18.230Z,1008.56
2016-09-24T05:03:28.517Z,1008.59
2016-09-24T05:04:38.174Z,1008.63
2016-09-24T05:05:48.168Z,1008.63
2016-09-24T05:06:57.826Z,1008.63
2016-09-24T05:08:07.809Z,1008.66
2016-09-24T05:09:17.182Z,1008.69
2016-09-24T05:10:27.162Z,1008.74
2016-09-24T05:11:37.449Z,1008.73
2016-09-24T05:12:46.489Z,1008.81
2016-09-24T05:13:56.481Z,1008.83
2016-09-24T05:15:06.773Z,1008.88
2016-09-24T05:16:16.449Z,1008.92
2016-09-24T05:17:26.437Z,1008.92
2016-09-24T05:18:36.417Z,1008.87
2016-09-24T05:19:46.417Z,1008.87
2016-09-24T05:20:56.700Z,1008.89
2016-09-24T05:22:06.987Z,1008.93
2016-09-24T05:23:16.660Z,1008.92
2016-09-24T05:24:26.644Z,1008.92
2016-09-24T05:25:36.638Z,1008.94
2016-09-24T05:26:46.599Z,1008.88
2016-09-24T05:27:56.906Z,1008.91
2016-09-24T05:29:06.582Z,1008.88
2016-09-24T05:30:16.563Z,1008.94
2016-09-24T05:31:26.545Z,1008.95
2016-09-24T05:32:36.526Z,1008.9
2016-09-24T05:33:46.508Z,1008.91
2016-09-24T05:34:56.800Z,1008.9
2016-09-24T05:36:06.776Z,1008.9
2016-09-24T05:37:17.063Z,1008.91
2016-09-24T05:38:27.356Z,1008.85
2016-09-24T05:39:37.328Z,1008.92
2016-09-24T05:40:47.304Z,1008.9
2016-09-24T05:41:57.581Z,1008.9
2016-09-24T05:43:07.257Z,1008.93
2016-09-24T05:44:17.238Z,1008.91
2016-09-24T05:45:27.525Z,1008.94
2016-09-24T05:46:37.832Z,1008.96
2016-09-24T05:47:47.808Z,1008.96
2016-09-24T05:48:57.781Z,1008.96
2016-09-24T05:50:07.753Z,1008.95
2016-09-24T05:51:17.737Z,1008.95
2016-09-24T05:52:27.739Z,1008.91
2016-09-24T05:53:38.026Z,1008.9
2016-09-24T05:54:47.696Z,1008.94
2016-09-24T05:55:57.686Z,1008.9
2016-09-24T05:57:07.981Z,1008.87
2016-09-24T05:58:17.983Z,1008.93
2016-09-24T05:59:28.286Z,1008.87
2016-09-24T06:00:37.970Z,1008.9
2016-09-24T06:01:48.267Z,1008.96
2016-09-24T06:02:58.279Z,1008.92
2016-09-24T06:04:07.955Z,1008.96
2016-09-24T06:05:18.235Z,1008.94
2016-09-24T06:06:28.214Z,1008.97
2016-09-24T06:07:37.891Z,1008.93
2016-09-24T06:08:47.872Z,1008.96
2016-09-24T06:09:58.153Z,1008.93
2016-09-24T06:11:08.160Z,1008.97
2016-09-24T06:12:18.451Z,1008.93
2016-09-24T06:13:28.462Z,1008.99
2016-09-24T06:14:38.443Z,1008.97
2016-09-24T06:15:48.419Z,1008.99
2016-09-24T06:16:58.402Z,1008.94
2016-09-24T06:18:08.077Z,1008.98
2016-09-24T06:19:18.371Z,1008.97
2016-09-24T06:20:28.364Z,1008.97
2016-09-24T06:21:38.654Z,1009.01
2016-09-24T06:22:48.981Z,1008.98
2016-09-24T06:23:58.643Z,1009
2016-09-24T06:25:08.659Z,1009.03
2016-09-24T06:26:18.626Z,1009.05
2016-09-24T06:27:28.606Z,1008.99
2016-09-24T06:28:38.579Z,1009.01
2016-09-24T06:29:48.556Z,1009.01
2016-09-24T06:30:58.553Z,1009
2016-09-24T06:32:08.549Z,1009.05
2016-09-24T06:33:18.520Z,1009.06
2016-09-24T06:34:28.800Z,1009.06
2016-09-24T06:35:38.781Z,1009.04
2016-09-24T06:36:48.771Z,1009.04
2016-09-24T06:37:58.761Z,1008.98
2016-09-24T06:39:08.765Z,1009.01
2016-09-24T06:40:19.055Z,1009.04
2016-09-24T06:41:29.023Z,1009.04
2016-09-24T06:42:38.698Z,1009.01
2016-09-24T06:43:48.362Z,1008.98
2016-09-24T06:44:58.644Z,1008.95
2016-09-24T06:46:08.631Z,1008.99
2016-09-24T06:47:18.604Z,1008.98
2016-09-24T06:48:28.577Z,1009
2016-09-24T06:49:38.279Z,1009
2016-09-24T06:50:48.281Z,1009.06
2016-09-24T06:51:57.954Z,1009.03
2016-09-24T06:53:07.939Z,1009
2016-09-24T06:54:17.633Z,1009
2016-09-24T06:55:27.923Z,1009
2016-09-24T06:56:37.913Z,1009.01
2016-09-24T06:57:48.205Z,1009.01
2016-09-24T06:58:58.496Z,1009.01
2016-09-24T07:00:08.798Z,1009
2016-09-24T07:01:19.087Z,1009.03
2016-09-24T07:02:29.067Z,1008.99
2016-09-24T07:03:38.740Z,1008.96
2016-09-24T07:04:49.040Z,1009
2016-09-24T07:05:59.052Z,1009.05
2016-09-24T07:07:09.353Z,1008.99
2016-09-24T07:08:19.650Z,1009.02
2016-09-24T07:09:29.941Z,1009.04
2016-09-24T07:10:40.220Z,1009
2016-09-24T07:11:50.521Z,1009
2016-09-24T07:13:00.501Z,1009.01
2016-09-24T07:14:10.493Z,1009.04
2016-09-24T07:15:20.790Z,1008.99
2016-09-24T07:16:30.782Z,1008.98
2016-09-24T07:17:41.085Z,1009.02
2016-09-24T07:18:51.065Z,1009
2016-09-24T07:20:01.374Z,1009.03
2016-09-24T07:21:11.681Z,1009.09
2016-09-24T07:22:21.971Z,1009.09
2016-09-24T07:23:31.962Z,1009.09
2016-09-24T07:24:41.027Z,1009.15
2016-09-24T07:25:51.326Z,1009.11
2016-09-24T07:27:01.304Z,1009.12
2016-09-24T07:28:11.590Z,1009.12
2016-09-24T07:29:21.871Z,1009.14
2016-09-24T07:30:32.186Z,1009.14
2016-09-24T07:31:42.479Z,1009.14
2016-09-24T07:32:52.773Z,1009.17
2016-09-24T07:34:02.772Z,1009.18
2016-09-24T07:35:13.069Z,1009.21
2016-09-24T07:36:23.076Z,1009.22
2016-09-24T07:37:33.372Z,1009.24
2016-09-24T07:38:43.353Z,1009.23
2016-09-24T07:39:53.655Z,1009.25
2016-09-24T07:41:03.949Z,1009.25
2016-09-24T07:42:13.638Z,1009.25
2016-09-24T07:43:23.941Z,1009.26
2016-09-24T07:44:33.632Z,1009.25
2016-09-24T07:45:43.614Z,1009.28
2016-09-24T07:46:53.602Z,1009.26
2016-09-24T07:48:03.276Z,1009.28
2016-09-24T07:49:13.584Z,1009.31
2016-09-24T07:50:23.556Z,1009.32
2016-09-24T07:51:33.874Z,1009.29
2016-09-24T07:52:44.199Z,1009.33
2016-09-24T07:53:53.878Z,1009.32
2016-09-24T07:55:03.868Z,1009.35
2016-09-24T07:56:13.871Z,1009.34
2016-09-24T07:57:24.177Z,1009.35
2016-09-24T07:58:34.460Z,1009.31
2016-09-24T07:59:44.801Z,1009.29
2016-09-24T08:00:55.096Z,1009.33
2016-09-24T08:02:05.118Z,1009.28
2016-09-24T08:03:15.420Z,1009.31
2016-09-24T08:04:25.421Z,1009.3
2016-09-24T08:05:35.714Z,1009.29
2016-09-24T08:06:45.076Z,1009.33
2016-09-24T08:07:55.370Z,1009.3
2016-09-24T08:09:05.688Z,1009.25
2016-09-24T08:10:16.013Z,1009.28
2016-09-24T08:11:26.312Z,1009.28
2016-09-24T08:12:36.624Z,1009.3
2016-09-24T08:13:46.916Z,1009.26
2016-09-24T08:14:57.218Z,1009.28
2016-09-24T08:16:07.195Z,1009.26
2016-09-24T08:17:16.875Z,1009.26
2016-09-24T08:18:26.861Z,1009.24
2016-09-24T08:19:37.150Z,1009.25
2016-09-24T08:20:47.152Z,1009.26
2016-09-24T08:21:57.442Z,1009.23
2016-09-24T08:23:07.436Z,1009.28
2016-09-24T08:24:17.127Z,1009.3
2016-09-24T08:25:27.109Z,1009.31
2016-09-24T08:26:37.113Z,1009.34
2016-09-24T08:27:47.409Z,1009.35
2016-09-24T08:28:57.715Z,1009.32
2016-09-24T08:30:07.705Z,1009.35
2016-09-24T08:31:17.097Z,1009.32
2016-09-24T08:32:27.073Z,1009.31
2016-09-24T08:33:37.075Z,1009.26
2016-09-24T08:34:47.376Z,1009.27
2016-09-24T08:35:57.684Z,1009.28
2016-09-24T08:37:07.685Z,1009.3
2016-09-24T08:38:17.681Z,1009.35
2016-09-24T08:39:27.678Z,1009.31
2016-09-24T08:40:37.351Z,1009.33
2016-09-24T08:41:47.653Z,1009.32
2016-09-24T08:42:57.953Z,1009.29
2016-09-24T08:44:07.635Z,1009.3
2016-09-24T08:45:17.626Z,1009.3
2016-09-24T08:46:27.004Z,1009.26
2016-09-24T08:47:37.305Z,1009.29
2016-09-24T08:48:47.327Z,1009.28
2016-09-24T08:49:57.628Z,1009.28
2016-09-24T08:51:07.617Z,1009.26
2016-09-24T08:52:17.592Z,1009.3
2016-09-24T08:53:27.584Z,1009.29
2016-09-24T08:54:37.576Z,1009.29
2016-09-24T08:55:47.867Z,1009.27
2016-09-24T08:56:57.853Z,1009.3
2016-09-24T08:58:08.171Z,1009.29
2016-09-24T08:59:17.874Z,1009.28
2016-09-24T09:00:27.875Z,1009.28
2016-09-24T09:01:38.172Z,1009.3
2016-09-24T09:02:48.469Z,1009.27
2016-09-24T09:03:58.774Z,1009.26
2016-09-24T09:05:09.063Z,1009.27
2016-09-24T09:06:19.048Z,1009.28
2016-09-24T09:07:28.728Z,1009.23
2016-09-24T09:08:38.701Z,1009.25
2016-09-24T09:09:49.010Z,1009.22
2016-09-24T09:10:58.995Z,1009.23
2016-09-24T09:12:08.988Z,1009.24
2016-09-24T09:13:18.980Z,1009.29
2016-09-24T09:14:28.680Z,1009.29
2016-09-24T09:15:38.658Z,1009.28
2016-09-24T09:16:48.960Z,1009.22
2016-09-24T09:17:59.256Z,1009.2
2016-09-24T09:19:09.233Z,1009.22
2016-09-24T09:20:19.536Z,1009.18
2016-09-24T09:21:29.829Z,1009.17
2016-09-24T09:22:40.140Z,1009.19
2016-09-24T09:23:50.450Z,1009.23
2016-09-24T09:25:00.756Z,1009.21
2016-09-24T09:26:11.054Z,1009.23
2016-09-24T09:27:20.730Z,1009.24
2016-09-24T09:28:31.043Z,1009.23
2016-09-24T09:29:41.044Z,1009.19
2016-09-24T09:30:51.341Z,1009.19
2016-09-24T09:32:01.625Z,1009.19
2016-09-24T09:33:11.919Z,1009.17
2016-09-24T09:34:21.914Z,1009.16
2016-09-24T09:35:32.195Z,1009.18
2016-09-24T09:36:42.193Z,1009.18
2016-09-24T09:37:52.177Z,1009.14
2016-09-24T09:39:02.167Z,1009.16
2016-09-24T09:40:12.153Z,1009.14
2016-09-24T09:41:22.451Z,1009.1
2016-09-24T09:42:32.442Z,1009.11
2016-09-24T09:43:42.734Z,1009.08
2016-09-24T09:44:52.722Z,1009.08
2016-09-24T09:46:02.711Z,1009.12
2016-09-24T09:47:12.722Z,1009.08
2016-09-24T09:48:22.729Z,1009.11
2016-09-24T09:49:32.715Z,1009.12
2016-09-24T09:50:42.710Z,1009.1
2016-09-24T09:51:53.010Z,1009.13
2016-09-24T09:53:02.693Z,1009.16
2016-09-24T09:54:13.019Z,1009.15
2016-09-24T09:55:23.323Z,1009.15
2016-09-24T09:56:33.314Z,1009.15
2016-09-24T09:57:43.611Z,1009.13
2016-09-24T09:58:53.931Z,1009.12
2016-09-24T10:00:04.219Z,1009.13
2016-09-24T10:01:14.521Z,1009.11
2016-09-24T10:02:24.526Z,1009.14
2016-09-24T10:03:34.827Z,1009.13
2016-09-24T10:04:44.809Z,1009.11
2016-09-24T10:05:55.097Z,1009.05
2016-09-24T10:07:05.084Z,1009.05
2016-09-24T10:08:15.088Z,1009.05
2016-09-24T10:09:25.373Z,1009.06
2016-09-24T10:10:35.366Z,1008.99
2016-09-24T10:11:45.654Z,1008.98
2016-09-24T10:12:55.965Z,1009.01
2016-09-24T10:14:06.269Z,1009
2016-09-24T10:15:16.282Z,1008.98
2016-09-24T10:16:26.567Z,1008.94
2016-09-24T10:17:36.550Z,1009.01
2016-09-24T10:18:46.551Z,1008.99
2016-09-24T10:19:56.228Z,1008.96
2016-09-24T10:21:06.526Z,1008.93
2016-09-24T10:22:16.817Z,1008.99
2016-09-24T10:23:26.492Z,1008.93
2016-09-24T10:24:36.480Z,1008.92
2016-09-24T10:25:46.805Z,1008.93
2016-09-24T10:26:57.097Z,1008.9
2016-09-24T10:28:07.414Z,1008.89
2016-09-24T10:29:17.716Z,1008.86
2016-09-24T10:30:27.718Z,1008.89
2016-09-24T10:31:37.404Z,1008.85
2016-09-24T10:32:47.701Z,1008.91
2016-09-24T10:33:57.697Z,1008.84
2016-09-24T10:35:08.004Z,1008.86
2016-09-24T10:36:18.298Z,1008.75
2016-09-24T10:37:28.284Z,1008.76
2016-09-24T10:38:38.285Z,1008.78
2016-09-24T10:39:48.591Z,1008.77
2016-09-24T10:40:58.887Z,1008.77
2016-09-24T10:42:09.197Z,1008.77
2016-09-24T10:43:19.506Z,1008.75
2016-09-24T10:44:29.813Z,1008.76
2016-09-24T10:45:40.129Z,1008.74
2016-09-24T10:46:50.434Z,1008.73
2016-09-24T10:48:00.744Z,1008.72
2016-09-24T10:49:11.044Z,1008.71
2016-09-24T10:50:21.322Z,1008.66
2016-09-24T10:51:31.308Z,1008.68
2016-09-24T10:52:41.625Z,1008.61
2016-09-24T10:53:51.331Z,1008.59
2016-09-24T10:55:01.004Z,1008.58
2016-09-24T10:56:10.994Z,1008.59
2016-09-24T10:57:21.311Z,1008.6
2016-09-24T10:58:31.295Z,1008.6
2016-09-24T10:59:41.581Z,1008.58
2016-09-24T11:00:51.892Z,1008.56
2016-09-24T11:02:02.193Z,1008.55
2016-09-24T11:03:12.197Z,1008.55
2016-09-24T11:04:22.507Z,1008.53
2016-09-24T11:05:32.799Z,1008.52
2016-09-24T11:06:42.809Z,1008.46
2016-09-24T11:07:52.797Z,1008.46
2016-09-24T11:09:02.783Z,1008.45
2016-09-24T11:10:13.100Z,1008.45
2016-09-24T11:11:23.396Z,1008.39
2016-09-24T11:12:33.407Z,1008.38
2016-09-24T11:13:43.692Z,1008.37
2016-09-24T11:14:54.001Z,1008.37
2016-09-24T11:16:04.312Z,1008.35
2016-09-24T11:17:14.624Z,1008.4
2016-09-24T11:18:24.930Z,1008.36
2016-09-24T11:19:35.223Z,1008.33
2016-09-24T11:20:45.516Z,1008.25
2016-09-24T11:21:55.800Z,1008.28
2016-09-24T11:23:05.787Z,1008.33
2016-09-24T11:24:15.778Z,1008.32
2016-09-24T11:25:26.077Z,1008.3
2016-09-24T11:26:36.069Z,1008.26
2016-09-24T11:27:46.050Z,1008.22
2016-09-24T11:28:56.360Z,1008.22
2016-09-24T11:30:06.664Z,1008.27
2016-09-24T11:31:17.181Z,1008.26
2016-09-24T11:32:27.494Z,1008.24
2016-09-24T11:33:37.808Z,1008.2
2016-09-24T11:34:47.811Z,1008.26
2016-09-24T11:35:58.129Z,1008.24
2016-09-24T11:37:08.125Z,1008.19
2016-09-24T11:38:18.142Z,1008.23
2016-09-24T11:39:28.147Z,1008.21
2016-09-24T11:40:38.485Z,1008.18
2016-09-24T11:41:48.797Z,1008.2
2016-09-24T11:42:59.091Z,1008.11
2016-09-24T11:44:09.085Z,1008.15
2016-09-24T11:45:19.422Z,1008.11
2016-09-24T11:46:29.712Z,1008.12
2016-09-24T11:47:40.049Z,1008.06
2016-09-24T11:48:50.407Z,1008.09
2016-09-24T11:50:00.716Z,1008.05
2016-09-24T11:51:10.728Z,1008.01
2016-09-24T11:52:21.052Z,1008.03
2016-09-24T11:53:31.053Z,1007.95
2016-09-24T11:54:41.364Z,1007.94
2016-09-24T11:55:51.666Z,1007.91
2016-09-24T11:57:01.655Z,1007.89
2016-09-24T11:58:11.660Z,1007.87
2016-09-24T11:59:21.974Z,1007.88
2016-09-24T12:00:31.958Z,1007.88
2016-09-24T12:01:42.263Z,1007.97
2016-09-24T12:02:51.958Z,1007.93
2016-09-24T12:04:01.953Z,1007.94
2016-09-24T12:05:12.256Z,1007.91
2016-09-24T12:06:22.573Z,1007.88
2016-09-24T12:07:32.565Z,1007.84
2016-09-24T12:08:42.887Z,1007.83
2016-09-24T12:09:53.176Z,1007.79
2016-09-24T12:11:03.214Z,1007.79
2016-09-24T12:12:13.521Z,1007.78
2016-09-24T12:13:22.584Z,1007.83
2016-09-24T12:14:32.887Z,1007.8
2016-09-24T12:15:43.190Z,1007.82
2016-09-24T12:16:53.201Z,1007.81
2016-09-24T12:18:03.531Z,1007.81
2016-09-24T12:19:13.521Z,1007.75
2016-09-24T12:20:23.833Z,1007.77
2016-09-24T12:21:33.830Z,1007.78
2016-09-24T12:22:44.127Z,1007.77
2016-09-24T12:23:54.433Z,1007.74
2016-09-24T12:25:04.755Z,1007.72
2016-09-24T12:26:15.079Z,1007.68
2016-09-24T12:27:25.376Z,1007.68
2016-09-24T12:28:35.695Z,1007.66
2016-09-24T12:29:45.699Z,1007.62
2016-09-24T12:30:55.988Z,1007.6
2016-09-24T12:32:06.296Z,1007.63
2016-09-24T12:33:16.298Z,1007.61
2016-09-24T12:34:26.623Z,1007.61
2016-09-24T12:35:36.920Z,1007.6
2016-09-24T12:36:47.225Z,1007.59
2016-09-24T12:37:57.540Z,1007.62
2016-09-24T12:39:07.541Z,1007.62
2016-09-24T12:40:17.854Z,1007.61
2016-09-24T12:41:28.152Z,1007.6
2016-09-24T12:42:38.456Z,1007.55
2016-09-24T12:43:48.453Z,1007.58
2016-09-24T12:44:58.768Z,1007.54
2016-09-24T12:46:08.464Z,1007.57
2016-09-24T12:47:18.464Z,1007.56
2016-09-24T12:48:28.764Z,1007.51
2016-09-24T12:49:39.067Z,1007.51
2016-09-24T12:50:48.743Z,1007.47
2016-09-24T12:51:59.041Z,1007.47
2016-09-24T12:53:09.118Z,1007.47
2016-09-24T12:54:19.117Z,1007.49
2016-09-24T12:55:29.425Z,1007.46
2016-09-24T12:56:39.461Z,1007.47
2016-09-24T12:57:49.766Z,1007.48
2016-09-24T12:58:59.762Z,1007.47
2016-09-24T13:00:10.074Z,1007.46
2016-09-24T13:01:20.372Z,1007.5
2016-09-24T13:02:30.678Z,1007.51
2016-09-24T13:03:40.697Z,1007.44
2016-09-24T13:04:50.990Z,1007.45
2016-09-24T13:06:01.268Z,1007.45
2016-09-24T13:07:11.594Z,1007.46
2016-09-24T13:08:21.591Z,1007.4
2016-09-24T13:09:31.580Z,1007.41
2016-09-24T13:10:41.899Z,1007.37
2016-09-24T13:11:52.190Z,1007.38
2016-09-24T13:13:02.499Z,1007.37
2016-09-24T13:14:12.485Z,1007.39
2016-09-24T13:15:22.800Z,1007.38
2016-09-24T13:16:33.115Z,1007.39
2016-09-24T13:17:43.446Z,1007.36
2016-09-24T13:18:53.134Z,1007.4
2016-09-24T13:20:03.447Z,1007.41
2016-09-24T13:21:13.437Z,1007.43
2016-09-24T13:22:23.752Z,1007.41
2016-09-24T13:23:33.742Z,1007.33
2016-09-24T13:24:44.031Z,1007.34
2016-09-24T13:25:54.020Z,1007.33
2016-09-24T13:27:04.309Z,1007.31
2016-09-24T13:28:14.605Z,1007.32
2016-09-24T13:29:24.592Z,1007.33
2016-09-24T13:30:34.567Z,1007.31
2016-09-24T13:31:44.862Z,1007.27
2016-09-24T13:32:54.851Z,1007.21
2016-09-24T13:34:05.073Z,1007.23
2016-09-24T13:35:14.754Z,1007.21
2016-09-24T13:36:25.061Z,1007.24
2016-09-24T13:37:35.358Z,1007.18
2016-09-24T13:38:45.660Z,1007.14
2016-09-24T13:39:55.660Z,1007.15
2016-09-24T13:41:05.351Z,1007.18
2016-09-24T13:42:15.652Z,1007.13
2016-09-24T13:43:25.645Z,1007.11
2016-09-24T13:44:35.653Z,1007.1
2016-09-24T13:45:45.966Z,1007.15
2016-09-24T13:46:55.636Z,1007.11
2016-09-24T13:48:05.623Z,1007.11
2016-09-24T13:49:15.931Z,1007.14
2016-09-24T13:50:25.917Z,1007.09
2016-09-24T13:51:35.298Z,1007.12
2016-09-24T13:52:45.619Z,1007.09
2016-09-24T13:53:55.623Z,1007.05
2016-09-24T13:55:05.914Z,1007.03
2016-09-24T13:56:15.907Z,1007.06
2016-09-24T13:57:25.897Z,1007.04
2016-09-24T13:58:36.195Z,1007.05
2016-09-24T13:59:46.517Z,1007.04
2016-09-24T14:00:56.813Z,1007.03
2016-09-24T14:02:06.790Z,1007
2016-09-24T14:03:17.090Z,1006.98
2016-09-24T14:04:27.443Z,1006.98
2016-09-24T14:05:37.758Z,1006.99
2016-09-24T14:06:47.745Z,1006.99
2016-09-24T14:07:58.058Z,1006.98
2016-09-24T14:09:08.051Z,1006.97
2016-09-24T14:10:18.358Z,1007.01
2016-09-24T14:11:28.050Z,1006.99
2016-09-24T14:12:38.370Z,1006.94
2016-09-24T14:13:48.048Z,1006.98
2016-09-24T14:14:58.362Z,1006.95
2016-09-24T14:16:08.655Z,1006.93
2016-09-24T14:17:18.978Z,1006.93
2016-09-24T14:18:29.002Z,1006.92
2016-09-24T14:19:39.296Z,1006.88
2016-09-24T14:20:49.588Z,1006.93
2016-09-24T14:21:59.905Z,1006.9
2016-09-24T14:23:09.891Z,1006.9
2016-09-24T14:24:20.176Z,1006.91
2016-09-24T14:25:30.475Z,1006.89
2016-09-24T14:26:40.766Z,1006.9
2016-09-24T14:27:51.058Z,1006.87
2016-09-24T14:29:01.370Z,1006.86
2016-09-24T14:30:11.361Z,1006.84
2016-09-24T14:31:21.347Z,1006.83
2016-09-24T14:32:31.336Z,1006.86
2016-09-24T14:33:41.635Z,1006.82
2016-09-24T14:34:51.933Z,1006.82
2016-09-24T14:36:01.926Z,1006.83
2016-09-24T14:37:12.249Z,1006.83
2016-09-24T14:38:22.653Z,1006.84
2016-09-24T14:39:32.940Z,1006.81
2016-09-24T14:40:42.626Z,1006.8
2016-09-24T14:41:52.928Z,1006.78
2016-09-24T14:43:02.916Z,1006.82
2016-09-24T14:44:12.906Z,1006.81
2016-09-24T14:45:23.208Z,1006.79
2016-09-24T14:46:33.525Z,1006.8
2016-09-24T14:47:43.832Z,1006.79
2016-09-24T14:48:54.131Z,1006.81